createdAt,value
2023-06-21T00:00:19.581Z,21.13
2023-06-21T00:01:22.677Z,21.11
2023-06-21T00:02:24.994Z,21.22
2023-06-21T00:03:27.104Z,21.25
2023-06-21T00:04:29.113Z,21.20
2023-06-21T00:05:32.135Z,21.03
2023-06-21T00:06:35.945Z,20.96
2023-06-21T00:07:39.990Z,21.08
2023-06-21T00:08:41.816Z,20.98
2023-06-21T00:09:43.678Z,21.03
2023-06-21T00:10:45.538Z,20.97
2023-06-21T00:11:47.815Z,20.94
2023-06-21T00:12:50.771Z,21.00
2023-06-21T00:13:56.590Z,21.07
2023-06-21T00:14:58.457Z,21.01
2023-06-21T00:16:00.363Z,21.08
2023-06-21T00:17:02.597Z,21.02
2023-06-21T00:18:04.878Z,21.08
2023-06-21T00:19:07.555Z,21.09
2023-06-21T00:20:11.870Z,21.08
2023-06-21T00:21:15.081Z,21.12
2023-06-21T00:22:22.967Z,21.12
2023-06-21T00:23:25.376Z,21.14
2023-06-21T00:24:27.334Z,21.22
2023-06-21T00:25:29.344Z,21.25
2023-06-21T00:26:31.683Z,21.32
2023-06-21T00:27:33.906Z,21.33
2023-06-21T00:28:36.428Z,21.35
2023-06-21T00:29:39.713Z,21.44
2023-06-21T00:30:41.599Z,21.45
2023-06-21T00:31:43.494Z,21.52
2023-06-21T00:32:47.109Z,21.60
2023-06-21T00:33:49.674Z,21.55
2023-06-21T00:34:51.730Z,21.43
2023-06-21T00:35:53.658Z,21.38
2023-06-21T00:36:55.832Z,21.37
2023-06-21T00:38:00.043Z,21.55
2023-06-21T00:39:02.011Z,21.47
2023-06-21T00:40:08.570Z,21.53
2023-06-21T00:41:10.833Z,21.59
2023-06-21T00:42:12.956Z,21.58
2023-06-21T00:43:18.002Z,21.70
2023-06-21T00:44:21.062Z,21.69
2023-06-21T00:45:23.428Z,21.72
2023-06-21T00:46:25.556Z,21.63
2023-06-21T00:47:27.508Z,21.60
2023-06-21T00:48:30.434Z,21.55
2023-06-21T00:49:34.676Z,21.66
2023-06-21T00:50:39.827Z,21.60
2023-06-21T00:51:43.528Z,21.39
2023-06-21T00:52:45.734Z,21.19
2023-06-21T00:53:48.059Z,21.15
2023-06-21T00:54:50.568Z,21.28
2023-06-21T00:55:52.472Z,21.23
2023-06-21T00:57:00.529Z,21.26
2023-06-21T00:58:02.479Z,21.39
2023-06-21T00:59:05.728Z,21.34
2023-06-21T01:00:10.673Z,21.21
2023-06-21T01:01:12.532Z,21.09
2023-06-21T01:02:14.884Z,21.00
2023-06-21T01:03:18.774Z,20.93
2023-06-21T01:04:22.383Z,20.96
2023-06-21T01:05:26.183Z,21.00
2023-06-21T01:06:49.768Z,20.95
2023-06-21T01:08:05.887Z,20.93
2023-06-21T01:09:33.901Z,20.85
2023-06-21T01:10:58.158Z,20.77
2023-06-21T01:12:28.188Z,20.84
2023-06-21T01:13:45.498Z,20.88
2023-06-21T01:14:59.336Z,20.76
2023-06-21T01:16:19.424Z,20.61
2023-06-21T01:17:22.670Z,20.43
2023-06-21T01:18:27.354Z,20.56
2023-06-21T01:19:41.219Z,20.69
2023-06-21T01:20:54.633Z,20.68
2023-06-21T01:22:00.972Z,20.72
2023-06-21T01:23:35.001Z,20.66
2023-06-21T01:24:55.522Z,20.58
2023-06-21T01:26:20.977Z,20.68
2023-06-21T01:27:30.136Z,20.64
2023-06-21T01:28:42.994Z,20.73
2023-06-21T01:29:49.068Z,20.75
2023-06-21T01:30:54.077Z,20.69
2023-06-21T01:31:57.853Z,20.63
2023-06-21T01:33:00.665Z,20.72
2023-06-21T01:34:05.923Z,20.69
2023-06-21T01:35:11.018Z,20.71
2023-06-21T01:36:13.482Z,20.60
2023-06-21T01:37:15.685Z,20.64
2023-06-21T01:38:17.960Z,20.59
2023-06-21T01:39:20.633Z,20.56
2023-06-21T01:40:22.504Z,20.46
2023-06-21T01:41:29.968Z,20.29
2023-06-21T01:42:32.190Z,20.46
2023-06-21T01:43:35.663Z,20.52
2023-06-21T01:44:37.932Z,20.36
2023-06-21T01:45:40.320Z,20.32
2023-06-21T01:46:43.425Z,20.49
2023-06-21T01:47:46.240Z,20.40
2023-06-21T01:48:49.432Z,20.36
2023-06-21T01:49:51.497Z,20.25
2023-06-21T01:50:53.652Z,20.27
2023-06-21T01:52:09.299Z,20.36
2023-06-21T01:53:15.421Z,20.36
2023-06-21T01:54:21.649Z,20.36
2023-06-21T01:55:24.460Z,20.46
2023-06-21T01:56:27.718Z,20.30
2023-06-21T01:57:36.462Z,20.25
2023-06-21T01:58:38.513Z,20.32
2023-06-21T01:59:42.725Z,20.28
2023-06-21T02:00:45.271Z,20.18
2023-06-21T02:01:51.417Z,20.04
2023-06-21T02:02:54.088Z,20.25
2023-06-21T02:04:00.907Z,20.07
2023-06-21T02:05:03.479Z,20.13
2023-06-21T02:06:06.387Z,20.10
2023-06-21T02:07:09.543Z,20.06
2023-06-21T02:08:17.342Z,20.07
2023-06-21T02:09:21.137Z,20.01
2023-06-21T02:10:26.721Z,20.08
2023-06-21T02:11:29.108Z,20.12
2023-06-21T02:12:34.381Z,20.10
2023-06-21T02:13:37.222Z,20.12
2023-06-21T02:14:39.322Z,20.23
2023-06-21T02:15:45.169Z,20.28
2023-06-21T02:16:47.064Z,20.15
2023-06-21T02:17:52.833Z,20.28
2023-06-21T02:18:55.949Z,20.36
2023-06-21T02:19:57.898Z,20.42
2023-06-21T02:21:00.358Z,20.34
2023-06-21T02:22:03.888Z,20.25
2023-06-21T02:23:06.363Z,20.28
2023-06-21T02:24:08.343Z,20.03
2023-06-21T02:25:14.080Z,19.89
2023-06-21T02:26:17.427Z,19.99
2023-06-21T02:27:19.291Z,20.05
2023-06-21T02:28:21.699Z,20.04
2023-06-21T02:29:23.672Z,19.85
2023-06-21T02:30:26.583Z,19.95
2023-06-21T02:31:28.753Z,19.90
2023-06-21T02:32:30.760Z,19.86
2023-06-21T02:33:33.033Z,19.89
2023-06-21T02:34:35.235Z,20.00
2023-06-21T02:35:38.682Z,20.12
2023-06-21T02:36:41.351Z,20.12
2023-06-21T02:37:43.222Z,20.18
2023-06-21T02:38:46.164Z,20.02
2023-06-21T02:39:48.225Z,19.84
2023-06-21T02:40:50.899Z,19.89
2023-06-21T02:41:53.243Z,19.85
2023-06-21T02:42:55.129Z,19.98
2023-06-21T02:43:57.338Z,20.04
2023-06-21T02:44:59.218Z,20.12
2023-06-21T02:46:03.211Z,20.15
2023-06-21T02:47:05.368Z,20.05
2023-06-21T02:48:08.727Z,20.04
2023-06-21T02:49:12.047Z,19.88
2023-06-21T02:50:17.692Z,20.02
2023-06-21T02:51:21.952Z,20.06
2023-06-21T02:52:23.916Z,19.96
2023-06-21T02:53:27.340Z,19.99
2023-06-21T02:54:29.538Z,19.95
2023-06-21T02:55:31.461Z,19.89
2023-06-21T02:56:33.660Z,19.95
2023-06-21T02:57:35.622Z,19.92
2023-06-21T02:58:37.800Z,19.92
2023-06-21T02:59:39.986Z,19.86
2023-06-21T03:00:42.428Z,19.80
2023-06-21T03:01:48.181Z,19.96
2023-06-21T03:02:53.164Z,20.00
2023-06-21T03:03:55.207Z,19.92
2023-06-21T03:04:57.437Z,19.92
2023-06-21T03:05:59.353Z,19.84
2023-06-21T03:07:02.495Z,19.76
2023-06-21T03:08:05.541Z,19.71
2023-06-21T03:09:07.463Z,19.69
2023-06-21T03:10:10.097Z,19.74
2023-06-21T03:11:13.354Z,19.81
2023-06-21T03:12:15.261Z,19.80
2023-06-21T03:13:17.129Z,19.83
2023-06-21T03:14:19.039Z,19.99
2023-06-21T03:15:21.202Z,19.93
2023-06-21T03:16:23.367Z,19.89
2023-06-21T03:17:25.287Z,20.01
2023-06-21T03:18:27.296Z,20.05
2023-06-21T03:19:29.152Z,20.12
2023-06-21T03:20:32.859Z,20.03
2023-06-21T03:21:35.242Z,20.12
2023-06-21T03:22:37.644Z,20.16
2023-06-21T03:23:39.634Z,20.18
2023-06-21T03:24:42.824Z,20.16
2023-06-21T03:25:45.669Z,20.24
2023-06-21T03:26:48.346Z,20.20
2023-06-21T03:27:50.327Z,20.20
2023-06-21T03:28:52.348Z,20.34
2023-06-21T03:29:54.448Z,20.38
2023-06-21T03:30:58.822Z,20.34
2023-06-21T03:32:02.349Z,20.56
2023-06-21T03:33:04.375Z,20.43
2023-06-21T03:34:07.597Z,20.52
2023-06-21T03:35:10.562Z,20.56
2023-06-21T03:36:12.788Z,20.56
2023-06-21T03:37:14.780Z,20.59
2023-06-21T03:38:18.922Z,20.62
2023-06-21T03:39:21.063Z,20.74
2023-06-21T03:40:23.426Z,20.59
2023-06-21T03:41:25.678Z,20.64
2023-06-21T03:42:28.328Z,20.51
2023-06-21T03:43:30.581Z,20.56
2023-06-21T03:44:33.372Z,20.60
2023-06-21T03:45:35.622Z,20.61
2023-06-21T03:46:38.228Z,20.73
2023-06-21T03:47:41.614Z,20.72
2023-06-21T03:48:44.047Z,20.71
2023-06-21T03:49:46.294Z,20.69
2023-06-21T03:50:50.245Z,20.71
2023-06-21T03:51:52.454Z,20.80
2023-06-21T03:52:56.288Z,20.89
2023-06-21T03:53:58.446Z,20.86
2023-06-21T03:55:03.493Z,20.79
2023-06-21T03:56:05.826Z,20.83
2023-06-21T03:57:08.074Z,20.89
2023-06-21T03:58:10.768Z,20.87
2023-06-21T03:59:12.773Z,20.88
2023-06-21T04:00:15.272Z,20.91
2023-06-21T04:01:17.791Z,20.98
2023-06-21T04:02:22.181Z,20.87
2023-06-21T04:03:24.128Z,21.03
2023-06-21T04:04:26.027Z,21.11
2023-06-21T04:05:27.929Z,21.19
2023-06-21T04:06:31.538Z,21.13
2023-06-21T04:07:34.363Z,21.15
2023-06-21T04:08:36.280Z,21.21
2023-06-21T04:09:38.139Z,21.27
2023-06-21T04:10:40.040Z,21.32
2023-06-21T04:11:41.897Z,21.30
2023-06-21T04:12:44.107Z,21.31
2023-06-21T04:13:49.457Z,21.36
2023-06-21T04:14:52.873Z,21.35
2023-06-21T04:15:54.760Z,21.42
2023-06-21T04:16:58.258Z,21.51
2023-06-21T04:18:02.149Z,21.56
2023-06-21T04:19:04.118Z,21.58
2023-06-21T04:20:12.365Z,21.55
2023-06-21T04:21:14.711Z,21.53
2023-06-21T04:22:16.624Z,21.59
2023-06-21T04:23:19.099Z,21.64
2023-06-21T04:24:21.054Z,21.61
2023-06-21T04:25:24.111Z,21.63
2023-06-21T04:26:26.075Z,21.56
2023-06-21T04:27:27.964Z,21.63
2023-06-21T04:28:30.121Z,21.55
2023-06-21T04:29:32.143Z,21.49
2023-06-21T04:30:35.900Z,21.49
2023-06-21T04:31:39.267Z,21.53
2023-06-21T04:32:48.249Z,21.61
2023-06-21T04:33:52.811Z,21.61
2023-06-21T04:34:54.756Z,21.69
2023-06-21T04:35:58.490Z,21.73
2023-06-21T04:37:06.439Z,21.84
2023-06-21T04:38:08.364Z,21.87
2023-06-21T04:39:10.617Z,21.89
2023-06-21T04:40:18.368Z,21.91
2023-06-21T04:41:21.167Z,21.93
2023-06-21T04:42:23.071Z,21.93
2023-06-21T04:43:26.367Z,21.95
2023-06-21T04:44:29.228Z,21.89
2023-06-21T04:45:31.888Z,21.86
2023-06-21T04:46:37.042Z,21.91
2023-06-21T04:47:39.108Z,21.88
2023-06-21T04:48:41.066Z,21.90
2023-06-21T04:49:44.079Z,22.03
2023-06-21T04:50:46.529Z,22.08
2023-06-21T04:51:48.598Z,22.21
2023-06-21T04:52:51.772Z,22.23
2023-06-21T04:53:53.861Z,22.31
2023-06-21T04:55:00.965Z,22.42
2023-06-21T04:56:02.917Z,22.50
2023-06-21T04:57:13.534Z,22.50
2023-06-21T04:58:16.814Z,22.55
2023-06-21T04:59:19.229Z,22.48
2023-06-21T05:00:21.678Z,22.51
2023-06-21T05:01:23.561Z,22.57
2023-06-21T05:02:26.344Z,22.62
2023-06-21T05:03:28.503Z,22.72
2023-06-21T05:04:31.547Z,22.76
2023-06-21T05:05:35.054Z,22.76
2023-06-21T05:06:41.830Z,22.78
2023-06-21T05:07:43.913Z,22.91
2023-06-21T05:08:45.770Z,22.98
2023-06-21T05:09:47.657Z,23.02
2023-06-21T05:10:49.905Z,23.08
2023-06-21T05:11:51.798Z,23.30
2023-06-21T05:12:53.657Z,23.31
2023-06-21T05:13:55.497Z,23.33
2023-06-21T05:14:57.557Z,23.32
2023-06-21T05:15:59.884Z,23.35
2023-06-21T05:17:01.885Z,23.39
2023-06-21T05:18:06.633Z,23.52
2023-06-21T05:19:08.749Z,23.70
2023-06-21T05:20:11.702Z,23.75
2023-06-21T05:21:14.139Z,23.84
2023-06-21T05:22:16.025Z,23.81
2023-06-21T05:23:17.900Z,23.96
2023-06-21T05:24:19.907Z,24.00
2023-06-21T05:25:22.012Z,23.98
2023-06-21T05:26:24.197Z,23.92
2023-06-21T05:27:26.140Z,24.02
2023-06-21T05:28:27.987Z,24.07
2023-06-21T05:29:29.893Z,24.12
2023-06-21T05:30:31.964Z,24.27
2023-06-21T05:31:34.305Z,24.29
2023-06-21T05:32:36.263Z,24.29
2023-06-21T05:33:38.203Z,24.34
2023-06-21T05:34:40.090Z,24.38
2023-06-21T05:35:41.999Z,24.45
2023-06-21T05:36:44.158Z,24.71
2023-06-21T05:37:46.024Z,24.63
2023-06-21T05:38:48.242Z,24.70
2023-06-21T05:39:50.198Z,24.87
2023-06-21T05:40:52.038Z,24.96
2023-06-21T05:41:54.292Z,24.94
2023-06-21T05:43:02.113Z,25.07
2023-06-21T05:44:04.139Z,25.04
2023-06-21T05:45:08.913Z,25.13
2023-06-21T05:46:10.930Z,25.16
2023-06-21T05:47:13.623Z,25.30
2023-06-21T05:48:15.618Z,25.18
2023-06-21T05:49:19.374Z,25.24
2023-06-21T05:50:21.338Z,25.16
2023-06-21T05:51:23.172Z,25.27
2023-06-21T05:52:25.347Z,25.28
2023-06-21T05:53:27.583Z,25.28
2023-06-21T05:54:29.608Z,25.35
2023-06-21T05:55:31.949Z,25.36
2023-06-21T05:56:38.274Z,25.37
2023-06-21T05:57:40.441Z,25.38
2023-06-21T05:58:42.309Z,25.57
2023-06-21T05:59:44.450Z,25.63
2023-06-21T06:00:46.352Z,25.62
2023-06-21T06:01:48.529Z,25.54
2023-06-21T06:02:50.920Z,25.33
2023-06-21T06:03:52.862Z,25.29
2023-06-21T06:04:56.553Z,25.17
2023-06-21T06:05:59.278Z,25.22
2023-06-21T06:07:01.524Z,25.31
2023-06-21T06:08:03.671Z,25.30
2023-06-21T06:09:06.512Z,25.40
2023-06-21T06:10:09.146Z,25.54
2023-06-21T06:11:11.051Z,25.47
2023-06-21T06:12:13.301Z,25.42
2023-06-21T06:13:15.395Z,25.39
2023-06-21T06:14:17.481Z,25.31
2023-06-21T06:15:19.685Z,25.57
2023-06-21T06:16:21.593Z,25.65
2023-06-21T06:17:23.788Z,25.75
2023-06-21T06:18:25.732Z,25.59
2023-06-21T06:19:27.701Z,25.62
2023-06-21T06:20:30.400Z,25.82
2023-06-21T06:21:32.498Z,25.91
2023-06-21T06:22:35.536Z,26.00
2023-06-21T06:23:37.371Z,26.02
2023-06-21T06:24:39.613Z,25.93
2023-06-21T06:25:41.789Z,25.92
2023-06-21T06:26:43.869Z,26.04
2023-06-21T06:27:46.195Z,26.16
2023-06-21T06:28:48.090Z,26.21
2023-06-21T06:29:50.039Z,26.28
2023-06-21T06:30:52.100Z,26.35
2023-06-21T06:31:54.151Z,26.41
2023-06-21T06:32:56.568Z,26.38
2023-06-21T06:33:58.722Z,26.54
2023-06-21T06:35:00.628Z,26.68
2023-06-21T06:36:02.610Z,26.78
2023-06-21T06:37:13.432Z,26.78
2023-06-21T06:38:17.302Z,26.84
2023-06-21T06:39:19.223Z,26.96
2023-06-21T06:40:21.139Z,26.96
2023-06-21T06:41:22.976Z,27.10
2023-06-21T06:42:25.120Z,27.13
2023-06-21T06:43:27.285Z,27.08
2023-06-21T06:44:29.169Z,27.21
2023-06-21T06:45:31.103Z,27.02
2023-06-21T06:46:33.066Z,27.10
2023-06-21T06:47:35.027Z,27.10
2023-06-21T06:48:37.528Z,27.28
2023-06-21T06:49:39.525Z,27.37
2023-06-21T06:50:43.191Z,27.42
2023-06-21T06:51:46.781Z,27.46
2023-06-21T06:52:49.505Z,27.54
2023-06-21T06:53:51.753Z,27.52
2023-06-21T06:54:53.852Z,27.66
2023-06-21T06:55:56.330Z,27.70
2023-06-21T06:56:58.651Z,27.75
2023-06-21T06:58:06.207Z,27.89
2023-06-21T06:59:08.957Z,27.91
2023-06-21T07:00:13.317Z,28.13
2023-06-21T07:01:16.345Z,28.09
2023-06-21T07:02:18.233Z,28.20
2023-06-21T07:03:20.402Z,28.13
2023-06-21T07:04:22.935Z,28.16
2023-06-21T07:05:25.472Z,28.23
2023-06-21T07:06:27.458Z,28.26
2023-06-21T07:07:29.618Z,28.40
2023-06-21T07:08:31.493Z,28.45
2023-06-21T07:09:34.515Z,28.47
2023-06-21T07:10:36.417Z,28.52
2023-06-21T07:11:38.531Z,28.59
2023-06-21T07:12:40.644Z,28.26
2023-06-21T07:13:43.798Z,28.32
2023-06-21T07:14:46.013Z,28.50
2023-06-21T07:15:47.954Z,28.72
2023-06-21T07:16:50.972Z,28.54
2023-06-21T07:17:52.859Z,28.49
2023-06-21T07:18:54.861Z,28.49
2023-06-21T07:19:57.050Z,28.31
2023-06-21T07:20:58.951Z,28.25
2023-06-21T07:22:00.819Z,28.29
2023-06-21T07:23:02.749Z,28.23
2023-06-21T07:24:04.738Z,28.42
2023-06-21T07:25:07.427Z,28.60
2023-06-21T07:26:10.417Z,28.51
2023-06-21T07:27:12.430Z,28.64
2023-06-21T07:28:14.363Z,28.55
2023-06-21T07:29:16.247Z,28.79
2023-06-21T07:30:21.495Z,28.64
2023-06-21T07:31:24.014Z,28.83
2023-06-21T07:32:31.776Z,28.78
2023-06-21T07:33:34.075Z,28.57
2023-06-21T07:34:36.134Z,28.92
2023-06-21T07:35:38.336Z,29.16
2023-06-21T07:36:42.009Z,29.39
2023-06-21T07:37:44.697Z,29.33
2023-06-21T07:38:47.756Z,29.36
2023-06-21T07:39:55.018Z,29.29
2023-06-21T07:40:57.619Z,29.27
2023-06-21T07:42:13.180Z,29.49
2023-06-21T07:43:16.048Z,29.48
2023-06-21T07:44:18.949Z,29.54
2023-06-21T07:45:20.876Z,29.62
2023-06-21T07:46:23.087Z,29.81
2023-06-21T07:47:25.201Z,29.80
2023-06-21T07:48:28.499Z,29.97
2023-06-21T07:49:30.429Z,29.75
2023-06-21T07:50:32.548Z,29.80
2023-06-21T07:51:34.733Z,29.85
2023-06-21T07:52:36.631Z,29.95
2023-06-21T07:53:38.506Z,30.02
2023-06-21T07:54:40.399Z,29.86
2023-06-21T07:55:42.290Z,29.97
2023-06-21T07:56:44.574Z,30.17
2023-06-21T07:57:46.826Z,30.23
2023-06-21T07:58:49.158Z,30.14
2023-06-21T07:59:51.146Z,30.06
2023-06-21T08:00:53.066Z,30.05
2023-06-21T08:01:55.286Z,30.09
2023-06-21T08:02:57.669Z,30.33
2023-06-21T08:04:01.328Z,30.29
2023-06-21T08:05:03.520Z,30.43
2023-06-21T08:06:05.412Z,30.48
2023-06-21T08:07:07.608Z,30.54
2023-06-21T08:08:09.659Z,30.60
2023-06-21T08:09:11.561Z,30.68
2023-06-21T08:10:14.108Z,30.69
2023-06-21T08:11:16.097Z,30.89
2023-06-21T08:12:18.428Z,31.02
2023-06-21T08:13:23.781Z,30.82
2023-06-21T08:14:25.777Z,30.69
2023-06-21T08:15:27.853Z,30.63
2023-06-21T08:16:29.992Z,30.56
2023-06-21T08:17:32.396Z,30.69
2023-06-21T08:18:35.826Z,30.98
2023-06-21T08:19:37.778Z,31.09
2023-06-21T08:20:41.869Z,30.91
2023-06-21T08:21:46.313Z,30.89
2023-06-21T08:22:48.785Z,31.12
2023-06-21T08:23:50.682Z,31.33
2023-06-21T08:24:52.655Z,31.47
2023-06-21T08:25:54.496Z,31.72
2023-06-21T08:26:56.550Z,31.73
2023-06-21T08:27:58.700Z,31.70
2023-06-21T08:29:00.595Z,31.58
2023-06-21T08:30:02.563Z,31.48
2023-06-21T08:31:04.651Z,31.49
2023-06-21T08:32:08.330Z,31.14
2023-06-21T08:33:13.654Z,31.10
2023-06-21T08:34:16.484Z,31.26
2023-06-21T08:35:18.385Z,31.33
2023-06-21T08:36:20.497Z,31.36
2023-06-21T08:37:26.216Z,31.33
2023-06-21T08:38:28.978Z,31.42
2023-06-21T08:39:32.490Z,31.12
2023-06-21T08:40:37.266Z,31.20
2023-06-21T08:41:40.347Z,31.50
2023-06-21T08:42:42.194Z,31.43
2023-06-21T08:43:44.365Z,31.57
2023-06-21T08:44:47.665Z,31.56
2023-06-21T08:45:50.653Z,31.71
2023-06-21T08:46:54.325Z,31.67
2023-06-21T08:48:02.071Z,31.77
2023-06-21T08:49:06.984Z,31.91
2023-06-21T08:50:13.109Z,31.80
2023-06-21T08:51:16.262Z,31.85
2023-06-21T08:52:22.975Z,32.08
2023-06-21T08:53:37.842Z,32.21
2023-06-21T08:54:43.873Z,32.35
2023-06-21T08:55:45.903Z,32.36
2023-06-21T08:56:56.935Z,32.40
2023-06-21T08:58:02.077Z,32.57
2023-06-21T08:59:07.074Z,32.71
2023-06-21T09:00:11.942Z,32.41
2023-06-21T09:01:15.825Z,32.10
2023-06-21T09:02:41.153Z,32.21
2023-06-21T09:03:59.583Z,32.32
2023-06-21T09:05:07.902Z,32.37
2023-06-21T09:06:19.322Z,32.49
2023-06-21T09:07:22.971Z,32.69
2023-06-21T09:08:25.018Z,32.81
2023-06-21T09:09:27.887Z,32.63
2023-06-21T09:10:31.227Z,32.63
2023-06-21T09:11:37.704Z,32.47
2023-06-21T09:12:41.386Z,32.54
2023-06-21T09:13:45.486Z,32.58
2023-06-21T09:14:47.440Z,32.65
2023-06-21T09:15:51.480Z,32.79
2023-06-21T09:16:54.046Z,32.97
2023-06-21T09:17:57.669Z,33.12
2023-06-21T09:18:59.956Z,33.03
2023-06-21T09:20:03.825Z,33.09
2023-06-21T09:21:07.669Z,33.23
2023-06-21T09:22:11.842Z,33.14
2023-06-21T09:23:13.790Z,32.84
2023-06-21T09:24:15.707Z,32.92
2023-06-21T09:25:17.641Z,32.95
2023-06-21T09:26:19.630Z,33.05
2023-06-21T09:27:21.867Z,33.31
2023-06-21T09:28:24.337Z,33.45
2023-06-21T09:29:27.086Z,32.84
2023-06-21T09:30:37.890Z,32.90
2023-06-21T09:31:40.685Z,32.98
2023-06-21T09:32:43.402Z,33.17
2023-06-21T09:33:47.285Z,33.10
2023-06-21T09:34:50.454Z,32.82
2023-06-21T09:35:52.697Z,31.88
2023-06-21T09:36:55.313Z,32.27
2023-06-21T09:37:57.627Z,32.27
2023-06-21T09:39:12.952Z,32.34
2023-06-21T09:40:14.875Z,32.32
2023-06-21T09:41:18.942Z,32.67
2023-06-21T09:42:23.271Z,32.42
2023-06-21T09:43:25.486Z,32.69
2023-06-21T09:44:27.416Z,32.96
2023-06-21T09:45:29.279Z,32.78
2023-06-21T09:46:31.320Z,33.15
2023-06-21T09:47:33.373Z,33.23
2023-06-21T09:48:38.270Z,33.22
2023-06-21T09:49:49.435Z,33.10
2023-06-21T09:50:51.417Z,33.25
2023-06-21T09:51:53.914Z,33.29
2023-06-21T09:52:55.785Z,33.16
2023-06-21T09:53:58.015Z,33.06
2023-06-21T09:55:00.569Z,32.53
2023-06-21T09:56:03.620Z,32.83
2023-06-21T09:57:07.768Z,32.92
2023-06-21T09:58:09.730Z,33.05
2023-06-21T09:59:21.601Z,33.04
2023-06-21T10:00:23.669Z,32.83
2023-06-21T10:01:25.903Z,33.16
2023-06-21T10:02:28.890Z,33.36
2023-06-21T10:03:31.048Z,33.56
2023-06-21T10:04:43.756Z,33.64
2023-06-21T10:05:59.512Z,33.77
2023-06-21T10:07:04.857Z,33.93
2023-06-21T10:08:07.026Z,34.19
2023-06-21T10:09:10.723Z,34.03
2023-06-21T10:10:13.826Z,34.10
2023-06-21T10:11:19.102Z,34.19
2023-06-21T10:12:21.428Z,34.14
2023-06-21T10:13:31.394Z,33.91
2023-06-21T10:14:33.978Z,34.25
2023-06-21T10:15:35.851Z,34.25
2023-06-21T10:16:38.851Z,33.96
2023-06-21T10:17:52.210Z,33.61
2023-06-21T10:19:00.347Z,33.10
2023-06-21T10:20:04.105Z,33.27
2023-06-21T10:21:08.775Z,33.63
2023-06-21T10:22:15.426Z,33.23
2023-06-21T10:23:19.101Z,32.79
2023-06-21T10:24:24.528Z,32.74
2023-06-21T10:25:28.387Z,32.48
2023-06-21T10:26:32.693Z,32.72
2023-06-21T10:27:35.948Z,32.83
2023-06-21T10:28:43.572Z,32.89
2023-06-21T10:29:49.469Z,32.73
2023-06-21T10:30:57.573Z,32.73
2023-06-21T10:32:01.623Z,32.26
2023-06-21T10:33:04.471Z,32.02
2023-06-21T10:34:09.381Z,32.28
2023-06-21T10:35:14.839Z,32.20
2023-06-21T10:36:23.176Z,32.31
2023-06-21T10:37:49.767Z,32.29
2023-06-21T10:38:55.017Z,32.17
2023-06-21T10:40:10.906Z,32.08
2023-06-21T10:41:17.829Z,32.08
2023-06-21T10:42:20.952Z,32.28
2023-06-21T10:43:23.077Z,32.32
2023-06-21T10:44:25.410Z,31.86
2023-06-21T10:45:29.892Z,31.79
2023-06-21T10:46:33.868Z,31.73
2023-06-21T10:47:37.627Z,31.69
2023-06-21T10:48:40.932Z,31.83
2023-06-21T10:49:44.233Z,31.69
2023-06-21T10:50:47.114Z,31.53
2023-06-21T10:51:51.078Z,31.67
2023-06-21T10:52:58.313Z,31.54
2023-06-21T10:54:02.102Z,31.40
2023-06-21T10:55:04.923Z,31.55
2023-06-21T10:56:08.939Z,31.73
2023-06-21T10:57:11.757Z,31.70
2023-06-21T10:58:14.635Z,31.74
2023-06-21T10:59:18.593Z,31.78
2023-06-21T11:00:22.740Z,31.60
2023-06-21T11:01:25.096Z,31.73
2023-06-21T11:02:28.731Z,31.78
2023-06-21T11:03:30.725Z,31.74
2023-06-21T11:05:10.801Z,31.22
2023-06-21T11:06:37.902Z,31.33
2023-06-21T11:07:55.765Z,31.33
2023-06-21T11:08:57.865Z,31.14
2023-06-21T11:10:07.359Z,30.99
2023-06-21T11:11:09.333Z,31.07
2023-06-21T11:12:13.268Z,31.02
2023-06-21T11:13:16.391Z,31.09
2023-06-21T11:14:31.337Z,30.98
2023-06-21T11:15:34.989Z,30.93
2023-06-21T11:16:40.366Z,30.98
2023-06-21T11:17:42.677Z,31.07
2023-06-21T11:18:50.218Z,31.02
2023-06-21T11:19:52.103Z,30.91
2023-06-21T11:20:58.258Z,30.88
2023-06-21T11:22:15.501Z,30.76
2023-06-21T11:23:19.596Z,30.75
2023-06-21T11:24:22.398Z,30.78
2023-06-21T11:25:25.355Z,30.71
2023-06-21T11:26:27.736Z,30.73
2023-06-21T11:27:30.042Z,30.72
2023-06-21T11:28:33.690Z,30.70
2023-06-21T11:29:38.950Z,30.70
2023-06-21T11:31:00.950Z,30.63
2023-06-21T11:32:16.406Z,30.60
2023-06-21T11:33:21.380Z,30.67
2023-06-21T11:34:31.185Z,30.68
2023-06-21T11:35:51.629Z,30.73
2023-06-21T11:36:53.595Z,30.83
2023-06-21T11:37:58.081Z,30.73
2023-06-21T11:39:02.937Z,30.76
2023-06-21T11:40:07.008Z,30.78
2023-06-21T11:41:37.709Z,30.96
2023-06-21T11:42:48.492Z,31.14
2023-06-21T11:43:57.017Z,31.02
2023-06-21T11:45:17.125Z,30.95
2023-06-21T11:46:26.085Z,31.16
2023-06-21T11:47:28.093Z,31.38
2023-06-21T11:48:31.404Z,31.25
2023-06-21T11:49:34.737Z,31.16
2023-06-21T11:50:48.789Z,31.20
2023-06-21T11:51:52.674Z,31.32
2023-06-21T11:52:55.766Z,31.47
2023-06-21T11:53:58.136Z,31.40
2023-06-21T11:55:12.166Z,31.26
2023-06-21T11:56:17.547Z,31.40
2023-06-21T11:57:19.806Z,31.20
2023-06-21T11:58:23.061Z,31.28
2023-06-21T11:59:26.180Z,31.36
2023-06-21T12:00:28.331Z,31.19
2023-06-21T12:01:31.772Z,30.96
2023-06-21T12:02:33.849Z,31.12
2023-06-21T12:03:35.947Z,31.22
2023-06-21T12:04:40.488Z,31.33
2023-06-21T12:05:53.187Z,31.31
2023-06-21T12:06:58.865Z,31.37
2023-06-21T12:08:00.860Z,31.63
2023-06-21T12:09:03.602Z,31.52
2023-06-21T12:10:06.403Z,31.62
2023-06-21T12:11:10.134Z,31.50
2023-06-21T12:12:12.541Z,31.56
2023-06-21T12:13:21.482Z,31.56
2023-06-21T12:14:23.942Z,31.60
2023-06-21T12:15:25.940Z,31.59
2023-06-21T12:16:28.080Z,31.72
2023-06-21T12:17:30.481Z,31.58
2023-06-21T12:18:33.866Z,31.65
2023-06-21T12:19:35.779Z,31.79
2023-06-21T12:20:39.018Z,31.43
2023-06-21T12:21:40.899Z,31.24
2023-06-21T12:22:43.113Z,31.41
2023-06-21T12:23:45.028Z,31.55
2023-06-21T12:24:46.932Z,31.58
2023-06-21T12:25:50.680Z,31.53
2023-06-21T12:26:55.093Z,31.60
2023-06-21T12:27:58.137Z,31.60
2023-06-21T12:29:00.321Z,31.54
2023-06-21T12:30:02.575Z,31.43
2023-06-21T12:31:06.352Z,31.47
2023-06-21T12:32:12.224Z,31.41
2023-06-21T12:33:15.883Z,31.58
2023-06-21T12:34:18.590Z,31.51
2023-06-21T12:35:20.665Z,31.48
2023-06-21T12:36:25.143Z,31.57
2023-06-21T12:37:27.150Z,31.30
2023-06-21T12:38:29.331Z,31.47
2023-06-21T12:39:31.335Z,31.57
2023-06-21T12:40:33.331Z,31.62
2023-06-21T12:41:35.702Z,31.65
2023-06-21T12:42:37.632Z,31.54
2023-06-21T12:43:44.157Z,31.67
2023-06-21T12:44:46.031Z,31.60
2023-06-21T12:45:47.893Z,31.53
2023-06-21T12:46:49.981Z,31.56
2023-06-21T12:47:53.070Z,31.91
2023-06-21T12:48:59.970Z,31.99
2023-06-21T12:50:01.991Z,32.34
2023-06-21T12:51:04.374Z,32.41
2023-06-21T12:52:06.710Z,32.67
2023-06-21T12:53:08.614Z,32.68
2023-06-21T12:54:19.064Z,32.58
2023-06-21T12:55:21.044Z,32.42
2023-06-21T12:56:25.792Z,32.41
2023-06-21T12:57:29.191Z,32.62
2023-06-21T12:58:31.329Z,32.84
2023-06-21T12:59:33.961Z,32.57
2023-06-21T13:00:35.852Z,32.83
2023-06-21T13:01:38.991Z,33.05
2023-06-21T13:02:40.975Z,33.14
2023-06-21T13:03:43.523Z,33.30
2023-06-21T13:04:48.614Z,33.20
2023-06-21T13:05:50.503Z,33.10
2023-06-21T13:06:52.411Z,33.11
2023-06-21T13:07:54.298Z,33.25
2023-06-21T13:08:57.709Z,33.35
2023-06-21T13:09:59.941Z,33.28
2023-06-21T13:11:01.939Z,33.06
2023-06-21T13:12:04.061Z,32.88
2023-06-21T13:13:05.958Z,32.82
2023-06-21T13:14:09.560Z,32.92
2023-06-21T13:15:12.783Z,32.92
2023-06-21T13:16:15.806Z,32.68
2023-06-21T13:17:17.765Z,32.77
2023-06-21T13:18:19.938Z,32.73
2023-06-21T13:19:21.855Z,32.74
2023-06-21T13:20:25.327Z,32.79
2023-06-21T13:21:29.374Z,32.51
2023-06-21T13:22:31.553Z,32.59
2023-06-21T13:23:35.567Z,32.72
2023-06-21T13:24:37.551Z,32.81
2023-06-21T13:25:40.012Z,32.84
2023-06-21T13:26:41.899Z,32.65
2023-06-21T13:27:46.273Z,32.57
2023-06-21T13:28:48.243Z,32.37
2023-06-21T13:29:50.316Z,32.53
2023-06-21T13:30:52.649Z,32.57
2023-06-21T13:31:55.060Z,32.71
2023-06-21T13:32:57.072Z,32.65
2023-06-21T13:33:58.999Z,32.53
2023-06-21T13:35:00.905Z,32.76
2023-06-21T13:36:03.263Z,32.90
2023-06-21T13:37:05.437Z,33.00
2023-06-21T13:38:07.323Z,33.05
2023-06-21T13:39:09.188Z,33.13
2023-06-21T13:40:11.261Z,33.13
2023-06-21T13:41:13.496Z,33.05
2023-06-21T13:42:15.464Z,33.15
2023-06-21T13:43:17.431Z,33.16